Time;durP1;ratioP1;P1;durP2;ratioP2;P2;SDS_P1;SDS_P2;PMS_P1;PMS_P2;Temp;Humidity;BMP_temperature;BMP_pressure;BME280_temperature;BME280_humidity;BME280_pressure;Samples;Min_cycle;Max_cycle;Signal;HPM_P1;HPM_P2
2021/11/29 00:01:57;;;;;;;7.72;1.00;;;;;;;;;;4333817;33;19953;-70
2021/11/29 00:04:23;;;;;;;3.50;1.20;;;;;;;;;;4359614;33;20057;-70
2021/11/29 00:06:48;;;;;;;;;;;;;;;;;;4347004;33;20032;-70
2021/11/29 00:09:19;;;;;;;3.33;1.00;;;;;;;;;;4360276;33;19972;-70
2021/11/29 00:11:44;;;;;;;2.65;1.30;;;;;;;;;;4359494;33;20401;-71
2021/11/29 00:14:09;;;;;;;;;;;;;;;;;;4359997;33;20024;-70
2021/11/29 00:16:35;;;;;;;3.20;1.66;;;;;;;;;;4359437;33;19934;-70
2021/11/29 00:19:00;;;;;;;;;;;;;;;;;;4359961;33;20133;-70
2021/11/29 00:21:25;;;;;;;1.23;1.12;;;;;;;;;;4361397;32;20414;-70
2021/11/29 00:23:51;;;;;;;;;;;;;;;;;;4363076;33;20040;-70
2021/11/29 00:26:19;;;;;;;4.15;1.40;;;;;;;;;;4362029;32;20309;-70
2021/11/29 00:28:45;;;;;;;4.55;1.30;;;;;;;;;;4362016;32;20043;-70
2021/11/29 00:31:10;;;;;;;;;;;;;;;;;;4349860;33;20058;-70
2021/11/29 00:33:36;;;;;;;7.15;1.90;;;;;;;;;;4362365;32;20013;-70
2021/11/29 00:36:01;;;;;;;;;;;;;;;;;;4362247;32;20036;-70
2021/11/29 00:38:26;;;;;;;6.25;2.72;;;;;;;;;;4362160;33;19946;-70
2021/11/29 00:40:51;;;;;;;;;;;;;;;;;;4348974;33;20230;-69
2021/11/29 00:43:16;;;;;;;3.78;2.80;;;;;;;;;;4361804;32;20030;-70
2021/11/29 00:45:42;;;;;;;;;;;;;;;;;;4362537;32;20091;-70
2021/11/29 00:48:07;;;;;;;8.20;3.47;;;;;;;;;;4361840;32;19965;-71
2021/11/29 00:50:37;;;;;;;;;;;;;;;;;;4362138;32;20053;-70
2021/11/29 00:53:02;;;;;;;5.87;3.03;;;;;;;;;;4361876;32;19949;-70
2021/11/29 00:55:27;;;;;;;;;;;;;;;;;;4361771;32;20071;-70
2021/11/29 00:57:52;;;;;;;8.88;5.10;;;;;;;;;;4362197;32;19989;-70
2021/11/29 01:00:18;;;;;;;;;;;;;;;;;;4361785;32;20132;-70
2021/11/29 01:02:43;;;;;;;8.25;3.30;;;;;;;;;;4362254;32;20252;-70
2021/11/29 01:05:08;;;;;;;;;;;;;;;;;;4362015;32;20039;-70
2021/11/29 01:07:34;;;;;;;4.20;2.15;;;;;;;;;;4362216;32;19972;-70
2021/11/29 01:10:07;;;;;;;;;;;;;;;;;;4362119;32;20036;-70
2021/11/29 01:12:45;;;;;;;3.55;2.20;;;;;;;;;;4348423;33;19954;-70
2021/11/29 01:15:12;;;;;;;6.60;2.47;;;;;;;;;;4362318;32;20061;-70
2021/11/29 01:17:37;;;;;;;7.90;2.92;;;;;;;;;;4361404;32;20134;-70
2021/11/29 01:20:03;;;;;;;;;;;;;;;;;;4348256;33;20040;-70
2021/11/29 01:22:38;;;;;;;;;;;;;;;;;;;;;
2021/11/29 01:25:04;;;;;;;11.43;8.07;;;;;;;;;;4350200;33;20039;-70
2021/11/29 01:27:30;;;;;;;;;;;;;;;;;;4362093;32;20066;-70
2021/11/29 01:29:58;;;;;;;10.30;5.68;;;;;;;;;;4361621;32;19969;-70
2021/11/29 01:32:31;;;;;;;9.90;6.05;;;;;;;;;;4361129;32;20166;-70
2021/11/29 01:34:56;;;;;;;8.48;4.70;;;;;;;;;;4361998;32;20114;-69
2021/11/29 01:37:22;;;;;;;;;;;;;;;;;;4361958;32;20115;-70
2021/11/29 01:40:32;;;;;;;8.68;3.95;;;;;;;;;;4361300;32;19969;-70
2021/11/29 01:42:33;;;;;;;9.15;4.80;;;;;;;;;;4354825;33;20043;-70
2021/11/29 01:44:59;;;;;;;;;;;;;;;;;;4348470;33;20457;-70
2021/11/29 01:47:25;;;;;;;6.22;4.40;;;;;;;;;;4361153;32;19938;-70
2021/11/29 01:49:50;;;;;;;;;;;;;;;;;;4361800;32;20081;-70
2021/11/29 01:52:15;;;;;;;6.40;4.07;;;;;;;;;;4360907;33;19994;-70
2021/11/29 01:54:40;;;;;;;;;;;;;;;;;;4348127;33;20408;-70
2021/11/29 01:57:06;;;;;;;2.72;1.68;;;;;;;;;;4347393;33;20037;-70
2021/11/29 01:59:31;;;;;;;;;;;;;;;;;;4362350;32;20031;-69
2021/11/29 02:01:57;;;;;;;3.90;1.65;;;;;;;;;;4360383;32;20111;-69
2021/11/29 02:04:22;;;;;;;;;;;;;;;;;;4361167;32;20031;-69
2021/11/29 02:06:48;;;;;;;5.05;2.87;;;;;;;;;;4360771;32;20405;-69
2021/11/29 02:09:13;;;;;;;;;;;;;;;;;;4361316;32;20373;-69
2021/11/29 02:11:38;;;;;;;5.56;1.30;;;;;;;;;;4348160;33;20347;-70
2021/11/29 02:14:04;;;;;;;;;;;;;;;;;;4361369;32;20110;-69
2021/11/29 02:16:29;;;;;;;3.67;1.33;;;;;;;;;;4360635;32;20320;-70
2021/11/29 02:18:54;;;;;;;;;;;;;;;;;;4348574;33;20031;-70
2021/11/29 02:21:34;;;;;;;3.55;1.23;;;;;;;;;;4360644;32;19953;-70
2021/11/29 02:24:03;;;;;;;3.55;1.10;;;;;;;;;;4346730;33;20143;-70
2021/11/29 02:26:29;;;;;;;5.68;1.27;;;;;;;;;;4361188;32;20323;-69
2021/11/29 02:28:54;;;;;;;;;;;;;;;;;;4361919;32;20023;-70
2021/11/29 02:31:23;;;;;;;1.42;0.98;;;;;;;;;;4360825;32;20322;-70
2021/11/29 02:33:48;;;;;;;2.67;0.98;;;;;;;;;;4360356;32;20074;-69
2021/11/29 02:36:13;;;;;;;;;;;;;;;;;;4360595;32;20039;-70
2021/11/29 02:38:39;;;;;;;3.36;1.42;;;;;;;;;;4360221;32;19942;-70
2021/11/29 02:41:06;;;;;;;;;;;;;;;;;;4360697;32;20072;-69
2021/11/29 02:43:31;;;;;;;2.53;1.73;;;;;;;;;;4360289;32;20301;-70
2021/11/29 02:45:56;;;;;;;;;;;;;;;;;;4360963;32;20162;-70
2021/11/29 02:48:41;;;;;;;8.32;3.55;;;;;;;;;;4360640;32;20276;-70
2021/11/29 02:51:07;;;;;;;4.87;2.70;;;;;;;;;;4360163;32;20057;-70
2021/11/29 02:53:32;;;;;;;;;;;;;;;;;;4360495;32;20043;-70
2021/11/29 02:56:06;;;;;;;7.72;4.60;;;;;;;;;;4361081;32;19969;-70
2021/11/29 02:58:31;;;;;;;8.35;4.37;;;;;;;;;;4360851;32;20063;-70
2021/11/29 03:00:56;;;;;;;;;;;;;;;;;;4360709;32;20031;-70
2021/11/29 03:03:22;;;;;;;10.12;5.20;;;;;;;;;;4360287;32;19934;-70
2021/11/29 03:05:48;;;;;;;;;;;;;;;;;;4360657;32;20109;-70
2021/11/29 03:08:13;;;;;;;6.57;4.85;;;;;;;;;;4360394;32;19949;-70
2021/11/29 03:10:38;;;;;;;;;;;;;;;;;;4360363;33;20031;-70
2021/11/29 03:13:07;;;;;;;9.75;6.53;;;;;;;;;;4360899;32;19949;-69
2021/11/29 03:15:32;;;;;;;9.88;7.05;;;;;;;;;;4360488;33;20081;-70
2021/11/29 03:20:42;;;;;;;18.27;8.73;;;;;;;;;;4360771;33;19941;-70
2021/11/29 03:23:17;;;;;;;;;;;;;;;;;;;;;
2021/11/29 03:26:24;;;;;;;9.23;7.20;;;;;;;;;;4299275;33;20333;-70
2021/11/29 03:28:55;;;;;;;13.05;9.25;;;;;;;;;;4289210;33;20032;-70
2021/11/29 03:31:22;;;;;;;16.20;12.20;;;;;;;;;;4314841;33;20496;-70
2021/11/29 03:34:06;;;;;;;13.62;11.63;;;;;;;;;;4337459;33;20066;-70
2021/11/29 03:37:02;;;;;;;11.98;10.13;;;;;;;;;;4361396;33;20062;-70
2021/11/29 03:39:28;;;;;;;14.57;11.30;;;;;;;;;;4345685;33;20039;-70
2021/11/29 03:41:55;;;;;;;16.62;11.77;;;;;;;;;;4344973;33;20422;-70
2021/11/29 03:44:45;;;;;;;16.02;10.18;;;;;;;;;;4331578;33;20422;-70
2021/11/29 03:47:10;;;;;;;13.90;8.80;;;;;;;;;;4344677;33;20035;-70
2021/11/29 03:49:45;;;;;;;;;;;;;;;;;;;;;
2021/11/29 03:52:29;;;;;;;;;;;;;;;;;;;;;
2021/11/29 03:54:55;;;;;;;10.93;8.02;;;;;;;;;;4345296;33;20039;-70
2021/11/29 03:57:20;;;;;;;;;;;;;;;;;;4349115;33;20053;-70
2021/11/29 03:59:55;;;;;;;11.60;5.58;;;;;;;;;;4348454;33;19985;-69
2021/11/29 04:02:20;;;;;;;10.93;5.85;;;;;;;;;;4348244;33;20039;-70
2021/11/29 04:04:47;;;;;;;;;;;;;;;;;;4348737;33;20054;-70
2021/11/29 04:07:12;;;;;;;13.73;5.78;;;;;;;;;;4347823;33;19953;-70
2021/11/29 04:09:38;;;;;;;;;;;;;;;;;;4334956;33;20086;-71
2021/11/29 04:12:03;;;;;;;11.12;5.03;;;;;;;;;;4347806;33;19973;-70
2021/11/29 04:14:29;;;;;;;;;;;;;;;;;;4348181;33;20386;-70
2021/11/29 04:16:54;;;;;;;11.88;4.37;;;;;;;;;;4347924;33;19977;-70
2021/11/29 04:19:47;;;;;;;;;;;;;;;;;;;;;
2021/11/29 04:22:24;;;;;;;9.27;4.75;;;;;;;;;;4347224;33;19939;-70
2021/11/29 04:24:50;;;;;;;9.07;6.20;;;;;;;;;;4348496;33;20062;-70
2021/11/29 04:27:15;;;;;;;;;;;;;;;;;;4348109;33;20031;-70
2021/11/29 04:32:50;;;;;;;8.70;5.57;;;;;;;;;;4309705;33;20456;-70
2021/11/29 04:35:15;;;;;;;14.20;7.20;;;;;;;;;;4347008;33;20480;-70
2021/11/29 04:37:40;;;;;;;;;;;;;;;;;;4334117;33;20067;-70
2021/11/29 04:40:06;;;;;;;8.93;6.90;;;;;;;;;;4335464;33;19938;-70
2021/11/29 04:42:31;;;;;;;;;;;;;;;;;;4348095;33;20043;-70
2021/11/29 04:44:57;;;;;;;6.85;2.90;;;;;;;;;;4347756;33;20347;-70
2021/11/29 04:47:22;;;;;;;;;;;;;;;;;;4347945;33;20031;-70
2021/11/29 04:49:50;;;;;;;9.30;2.28;;;;;;;;;;4347739;33;20009;-70
2021/11/29 04:52:19;;;;;;;7.97;2.45;;;;;;;;;;4347473;33;20128;-69
2021/11/29 04:54:44;;;;;;;16.80;2.58;;;;;;;;;;4347240;33;20028;-70
2021/11/29 04:57:09;;;;;;;;;;;;;;;;;;4347179;33;20061;-70
2021/11/29 04:59:35;;;;;;;10.45;3.42;;;;;;;;;;4347506;33;20344;-70
2021/11/29 05:02:01;;;;;;;;;;;;;;;;;;4347833;33;20339;-70
2021/11/29 05:04:27;;;;;;;9.38;2.78;;;;;;;;;;4347777;33;20352;-70
2021/11/29 05:06:52;;;;;;;;;;;;;;;;;;4347587;33;20074;-70
2021/11/29 05:09:18;;;;;;;11.30;2.50;;;;;;;;;;4347245;33;20029;-70
2021/11/29 05:11:43;;;;;;;;;;;;;;;;;;4334149;33;20066;-70
2021/11/29 05:14:11;;;;;;;9.52;2.47;;;;;;;;;;4346560;33;19951;-70
2021/11/29 05:16:38;;;;;;;10.05;2.65;;;;;;;;;;4333133;33;20023;-70
2021/11/29 05:21:48;;;;;;;13.57;3.03;;;;;;;;;;4347942;33;20089;-70
2021/11/29 05:24:13;;;;;;;;;;;;;;;;;;4347453;33;20346;-71
2021/11/29 05:26:39;;;;;;;12.95;2.60;;;;;;;;;;4347079;33;19947;-70
2021/11/29 05:29:04;;;;;;;;;;;;;;;;;;4347017;33;20027;-70
2021/11/29 05:31:30;;;;;;;8.30;2.47;;;;;;;;;;4347214;33;19977;-70
2021/11/29 05:34:05;;;;;;;;;;;;;;;;;;;;;
2021/11/29 05:36:33;;;;;;;6.15;2.55;;;;;;;;;;4345977;33;20300;-70
2021/11/29 05:38:59;;;;;;;7.72;1.73;;;;;;;;;;4359196;33;20093;-70
2021/11/29 05:41:24;;;;;;;;;;;;;;;;;;4361380;33;20408;-70
2021/11/29 05:43:49;;;;;;;8.80;1.90;;;;;;;;;;4362091;32;20265;-70
2021/11/29 05:46:18;;;;;;;;;;;;;;;;;;4362170;32;20027;-70
2021/11/29 05:48:55;;;;;;;7.45;2.17;;;;;;;;;;4347674;33;19935;-69
2021/11/29 05:51:35;;;;;;;5.78;2.08;;;;;;;;;;4347344;33;20062;-71
2021/11/29 05:54:01;;;;;;;19.95;3.25;;;;;;;;;;4361576;32;20059;-71
2021/11/29 05:56:26;;;;;;;;;;;;;;;;;;4361280;32;20027;-71
2021/11/29 05:58:51;;;;;;;10.72;1.94;;;;;;;;;;4361127;33;19935;-70
2021/11/29 06:01:17;;;;;;;;;;;;;;;;;;4360855;32;20085;-71
2021/11/29 06:03:44;;;;;;;5.40;1.50;;;;;;;;;;4347689;33;20268;-71
2021/11/29 06:06:12;;;;;;;4.50;1.30;;;;;;;;;;4361291;32;20031;-71
2021/11/29 06:08:47;;;;;;;11.55;1.37;;;;;;;;;;4360654;32;20087;-72
2021/11/29 06:11:12;;;;;;;10.20;1.75;;;;;;;;;;4361034;33;20394;-70
2021/11/29 06:13:37;;;;;;;;;;;;;;;;;;4361791;32;20112;-71
2021/11/29 06:16:03;;;;;;;8.48;1.80;;;;;;;;;;4360794;32;19943;-71
2021/11/29 06:18:31;;;;;;;;;;;;;;;;;;4360529;32;20407;-72
2021/11/29 06:20:56;;;;;;;7.45;2.12;;;;;;;;;;4359911;33;19972;-71
2021/11/29 06:23:22;;;;;;;;;;;;;;;;;;4361442;32;20047;-70
2021/11/29 06:25:47;;;;;;;5.28;1.40;;;;;;;;;;4360584;32;20297;-70
2021/11/29 06:28:12;;;;;;;;;;;;;;;;;;4361004;32;20065;-70
2021/11/29 06:30:37;;;;;;;4.95;1.42;;;;;;;;;;4360853;33;19945;-70
2021/11/29 06:33:03;;;;;;;;;;;;;;;;;;4347063;33;20976;-71
2021/11/29 06:35:28;;;;;;;8.75;1.30;;;;;;;;;;4360282;32;19976;-71
2021/11/29 06:37:53;;;;;;;;;;;;;;;;;;4359797;32;20058;-71
2021/11/29 06:40:22;;;;;;;8.77;2.65;;;;;;;;;;4361561;32;19954;-71
2021/11/29 06:42:50;;;;;;;15.65;2.87;;;;;;;;;;4346550;33;20483;-71
2021/11/29 06:48:19;;;;;;;9.25;2.03;;;;;;;;;;4360641;32;20123;-70
2021/11/29 06:50:44;;;;;;;;;;;;;;;;;;4347279;33;20027;-71
2021/11/29 06:53:09;;;;;;;7.36;2.18;;;;;;;;;;4360185;32;19969;-70
2021/11/29 06:55:34;;;;;;;;;;;;;;;;;;4359625;33;20040;-71
2021/11/29 06:58:00;;;;;;;10.50;1.90;;;;;;;;;;4359464;32;19988;-70
2021/11/29 07:00:25;;;;;;;;;;;;;;;;;;4361230;32;20504;-70
2021/11/29 07:02:52;;;;;;;11.15;2.53;;;;;;;;;;4360223;32;19938;-70
2021/11/29 07:05:21;;;;;;;7.45;2.10;;;;;;;;;;4360138;32;20652;-70
2021/11/29 07:07:49;;;;;;;10.43;2.25;;;;;;;;;;4360303;32;20105;-70
2021/11/29 07:10:15;;;;;;;10.25;2.55;;;;;;;;;;4360271;32;20421;-71
2021/11/29 07:12:40;;;;;;;;;;;;;;;;;;4346877;33;20058;-70
2021/11/29 07:15:07;;;;;;;11.90;3.75;;;;;;;;;;4361442;32;19935;-70
2021/11/29 07:17:32;;;;;;;21.80;2.72;;;;;;;;;;4360085;33;20197;-70
2021/11/29 07:19:57;;;;;;;;;;;;;;;;;;4361515;33;20062;-70
2021/11/29 07:22:24;;;;;;;9.52;1.75;;;;;;;;;;4359795;33;19946;-70
2021/11/29 07:24:51;;;;;;;12.32;2.58;;;;;;;;;;4341890;33;20086;-70
2021/11/29 07:27:16;;;;;;;19.30;3.35;;;;;;;;;;4360103;33;20062;-72
2021/11/29 07:29:42;;;;;;;;;;;;;;;;;;4361216;32;20043;-70
2021/11/29 07:32:07;;;;;;;6.20;2.15;;;;;;;;;;4362256;32;19942;-71
2021/11/29 07:34:33;;;;;;;;;;;;;;;;;;4363411;32;20090;-70
2021/11/29 07:36:58;;;;;;;7.75;2.40;;;;;;;;;;4362955;32;19993;-72
2021/11/29 07:39:23;;;;;;;;;;;;;;;;;;4361333;32;20094;-72
2021/11/29 07:41:51;;;;;;;12.85;2.75;;;;;;;;;;4362592;32;19970;-70
2021/11/29 07:44:16;;;;;;;14.70;2.75;;;;;;;;;;4362596;33;20206;-70
2021/11/29 07:46:41;;;;;;;;;;;;;;;;;;4363953;32;20401;-70
2021/11/29 07:49:16;;;;;;;16.67;2.83;;;;;;;;;;4362985;32;19934;-70
2021/11/29 07:51:44;;;;;;;8.63;2.58;;;;;;;;;;4362494;32;20417;-70
2021/11/29 07:54:10;;;;;;;13.05;2.45;;;;;;;;;;4361054;32;20036;-70
2021/11/29 07:56:38;;;;;;;;;;;;;;;;;;4356195;33;20035;-70
2021/11/29 07:59:03;;;;;;;17.23;2.78;;;;;;;;;;4362245;32;19942;-70
2021/11/29 08:01:29;;;;;;;;;;;;;;;;;;4361701;32;20057;-71
2021/11/29 08:03:54;;;;;;;10.98;2.60;;;;;;;;;;4362147;32;19972;-71
2021/11/29 08:06:19;;;;;;;;;;;;;;;;;;4349142;33;20035;-70
2021/11/29 08:08:54;;;;;;;11.40;2.45;;;;;;;;;;4350877;33;19942;-70
2021/11/29 08:11:21;;;;;;;13.45;3.12;;;;;;;;;;4362912;32;20117;-70
2021/11/29 08:13:47;;;;;;;10.90;2.87;;;;;;;;;;4348714;33;20031;-71
2021/11/29 08:16:13;;;;;;;;;;;;;;;;;;4362184;32;20335;-70
2021/11/29 08:18:38;;;;;;;9.82;2.42;;;;;;;;;;4362921;32;20061;-72
2021/11/29 08:21:03;;;;;;;;;;;;;;;;;;4360445;32;20036;-71
2021/11/29 08:23:32;;;;;;;9.18;3.15;;;;;;;;;;4362291;32;19980;-72
2021/11/29 08:25:58;;;;;;;14.90;3.22;;;;;;;;;;4362622;32;20058;-71
2021/11/29 08:28:23;;;;;;;;;;;;;;;;;;4362563;32;20377;-71
2021/11/29 08:31:00;;;;;;;9.30;1.87;;;;;;;;;;4362605;32;20312;-69
2021/11/29 08:33:26;;;;;;;14.52;3.17;;;;;;;;;;4362817;32;20024;-70
2021/11/29 08:35:51;;;;;;;19.73;3.22;;;;;;;;;;4362421;33;20054;-71
2021/11/29 08:38:26;;;;;;;;;;;;;;;;;;4362360;32;20115;-71
2021/11/29 08:40:51;;;;;;;13.90;1.80;;;;;;;;;;4354216;33;19939;-71
2021/11/29 08:43:19;;;;;;;;;;;;;;;;;;4347702;33;20039;-71
2021/11/29 08:45:47;;;;;;;8.50;1.52;;;;;;;;;;4358903;33;20257;-70
2021/11/29 08:48:12;;;;;;;8.57;3.25;;;;;;;;;;4361579;32;20066;-70
2021/11/29 08:50:48;;;;;;;;;;;;;;;;;;;;;
2021/11/29 08:53:16;;;;;;;5.60;1.85;;;;;;;;;;4357190;33;20237;-71
2021/11/29 08:55:41;;;;;;;12.88;3.05;;;;;;;;;;4348133;33;20043;-70
2021/11/29 08:58:10;;;;;;;;;;;;;;;;;;4360655;32;20066;-71
2021/11/29 09:00:36;;;;;;;6.82;2.87;;;;;;;;;;4360840;32;19935;-70
2021/11/29 09:03:06;;;;;;;14.48;2.10;;;;;;;;;;4360951;32;20044;-70
2021/11/29 09:05:31;;;;;;;9.65;1.75;;;;;;;;;;4362367;32;20039;-69
2021/11/29 09:07:59;;;;;;;;;;;;;;;;;;4363216;32;20027;-69
2021/11/29 09:10:31;;;;;;;5.80;1.87;;;;;;;;;;4361414;32;19946;-70
2021/11/29 09:13:05;;;;;;;12.55;2.20;;;;;;;;;;4361725;33;20094;-70
2021/11/29 09:15:30;;;;;;;12.57;3.05;;;;;;;;;;4362048;32;20047;-69
2021/11/29 09:17:56;;;;;;;;;;;;;;;;;;4360121;32;20061;-69
2021/11/29 09:20:22;;;;;;;8.57;2.03;;;;;;;;;;4354175;33;19955;-70
2021/11/29 09:22:48;;;;;;;9.93;3.10;;;;;;;;;;4360410;32;20119;-69
2021/11/29 09:25:13;;;;;;;;;;;;;;;;;;4347379;33;20090;-69
2021/11/29 09:27:39;;;;;;;6.03;1.90;;;;;;;;;;4359264;32;20370;-70
2021/11/29 09:30:04;;;;;;;;;;;;;;;;;;4358160;32;20039;-69
2021/11/29 09:32:35;;;;;;;5.87;1.80;;;;;;;;;;4346981;33;19974;-69
2021/11/29 09:35:00;;;;;;;10.20;3.03;;;;;;;;;;4347431;33;20032;-70
2021/11/29 09:37:25;;;;;;;;;;;;;;;;;;4346753;33;20105;-69
2021/11/29 09:39:53;;;;;;;8.50;2.00;;;;;;;;;;4347846;33;20098;-70
2021/11/29 09:42:19;;;;;;;9.80;1.87;;;;;;;;;;4333036;33;20062;-70
2021/11/29 09:44:46;;;;;;;;;;;;;;;;;;4346531;33;20058;-69
2021/11/29 09:47:13;;;;;;;9.38;2.03;;;;;;;;;;4347149;33;19934;-69
2021/11/29 09:49:39;;;;;;;5.00;1.55;;;;;;;;;;4361062;32;20058;-69
2021/11/29 09:52:04;;;;;;;;;;;;;;;;;;4361374;32;20050;-69
2021/11/29 09:54:29;;;;;;;3.80;1.65;;;;;;;;;;4360217;33;20325;-70
2021/11/29 09:56:54;;;;;;;;;;;;;;;;;;4361807;32;20031;-69
2021/11/29 09:59:23;;;;;;;10.45;1.65;;;;;;;;;;4373029;32;19938;-68
2021/11/29 10:01:53;;;;;;;4.90;1.92;;;;;;;;;;4359766;32;20209;-69
2021/11/29 10:04:18;;;;;;;7.30;1.60;;;;;;;;;;4361652;32;20190;-69
2021/11/29 10:06:45;;;;;;;;;;;;;;;;;;4361703;32;20397;-68
2021/11/29 10:09:33;;;;;;;7.90;1.70;;;;;;;;;;4361168;32;20369;-69
2021/11/29 10:12:00;;;;;;;9.50;1.92;;;;;;;;;;4360134;33;20069;-69
2021/11/29 10:14:25;;;;;;;11.00;1.62;;;;;;;;;;4361181;32;20032;-69
2021/11/29 10:16:51;;;;;;;;;;;;;;;;;;4359938;33;20455;-69
2021/11/29 10:19:22;;;;;;;7.55;1.40;;;;;;;;;;4361125;33;20289;-69
2021/11/29 10:21:47;;;;;;;6.53;1.10;;;;;;;;;;4360708;32;20154;-70
2021/11/29 10:24:13;;;;;;;;;;;;;;;;;;4361082;32;20047;-69
2021/11/29 10:26:38;;;;;;;4.20;1.33;;;;;;;;;;4360706;32;20288;-69
2021/11/29 10:29:06;;;;;;;;;;;;;;;;;;4361259;33;20038;-69
2021/11/29 10:31:37;;;;;;;2.47;0.90;;;;;;;;;;4360530;32;19958;-70
2021/11/29 10:34:04;;;;;;;9.23;1.60;;;;;;;;;;4361599;32;20077;-69
2021/11/29 10:36:33;;;;;;;6.05;1.37;;;;;;;;;;4359689;32;20084;-68
2021/11/29 10:39:06;;;;;;;5.10;1.30;;;;;;;;;;4372697;32;20421;-69
2021/11/29 10:41:35;;;;;;;4.97;1.02;;;;;;;;;;4362145;32;20030;-68
2021/11/29 10:44:02;;;;;;;2.25;0.90;;;;;;;;;;4376216;32;20097;-68
2021/11/29 10:46:35;;;;;;;5.03;1.20;;;;;;;;;;4375561;32;20073;-69
2021/11/29 10:49:03;;;;;;;1.58;0.88;;;;;;;;;;4361175;32;20035;-69
2021/11/29 10:51:28;;;;;;;6.05;1.60;;;;;;;;;;4375422;32;20156;-69
2021/11/29 10:53:54;;;;;;;;;;;;;;;;;;4375669;32;20039;-68
2021/11/29 10:56:20;;;;;;;3.47;1.37;;;;;;;;;;4375490;32;19934;-69
2021/11/29 10:58:47;;;;;;;3.08;0.88;;;;;;;;;;4361919;32;20349;-69
2021/11/29 11:01:13;;;;;;;3.03;0.82;;;;;;;;;;4375454;32;20057;-69
2021/11/29 11:03:55;;;;;;;1.40;1.00;;;;;;;;;;4374883;32;20452;-69
2021/11/29 11:06:28;;;;;;;4.20;1.30;;;;;;;;;;4375136;32;20386;-69
2021/11/29 11:08:53;;;;;;;3.15;1.17;;;;;;;;;;4376193;32;20035;-69
2021/11/29 11:11:19;;;;;;;;;;;;;;;;;;4375525;32;20062;-69
2021/11/29 11:14:03;;;;;;;2.20;0.90;;;;;;;;;;4373817;32;19962;-69
2021/11/29 11:16:38;;;;;;;6.18;1.20;;;;;;;;;;4374979;32;20074;-69
2021/11/29 11:19:04;;;;;;;5.13;2.13;;;;;;;;;;4375098;32;20035;-69
2021/11/29 11:21:29;;;;;;;;;;;;;;;;;;4374844;32;20476;-70
2021/11/29 11:24:16;;;;;;;2.05;1.05;;;;;;;;;;4374084;32;20296;-70
2021/11/29 11:26:44;;;;;;;4.68;1.15;;;;;;;;;;4375946;32;20109;-70
2021/11/29 11:29:11;;;;;;;5.00;1.10;;;;;;;;;;4361323;32;20365;-70
2021/11/29 11:31:36;;;;;;;4.07;1.15;;;;;;;;;;4374545;32;20088;-68
2021/11/29 11:34:01;;;;;;;;;;;;;;;;;;4374804;32;20444;-69
2021/11/29 11:36:27;;;;;;;4.95;1.02;;;;;;;;;;4375684;32;19933;-70
2021/11/29 11:38:52;;;;;;;;;;;;;;;;;;4375183;32;20139;-69
2021/11/29 11:41:22;;;;;;;2.85;1.17;;;;;;;;;;4375012;32;20409;-70
2021/11/29 11:43:47;;;;;;;4.30;1.45;;;;;;;;;;4373556;32;20027;-70
2021/11/29 11:46:12;;;;;;;;;;;;;;;;;;4375528;32;20050;-70
2021/11/29 11:48:39;;;;;;;5.64;1.54;;;;;;;;;;4375128;32;19974;-70
2021/11/29 11:51:04;;;;;;;4.20;1.37;;;;;;;;;;4375335;32;20027;-69
2021/11/29 11:53:29;;;;;;;;;;;;;;;;;;4375634;32;20086;-69
2021/11/29 11:55:54;;;;;;;4.22;1.52;;;;;;;;;;4374731;32;19942;-69
2021/11/29 11:58:19;;;;;;;;;;;;;;;;;;4375239;32;20533;-70
2021/11/29 12:01:00;;;;;;;8.63;1.50;;;;;;;;;;4375221;32;20363;-69
2021/11/29 12:03:32;;;;;;;4.30;1.67;;;;;;;;;;4374666;32;20058;-70
2021/11/29 12:06:02;;;;;;;5.05;1.48;;;;;;;;;;4375752;32;20422;-70
2021/11/29 12:08:39;;;;;;;5.65;1.30;;;;;;;;;;4374878;32;20042;-70
2021/11/29 12:11:26;;;;;;;5.65;2.20;;;;;;;;;;4374592;32;20031;-70
2021/11/29 12:14:10;;;;;;;5.60;1.57;;;;;;;;;;4364561;32;20088;-71
2021/11/29 12:16:39;;;;;;;5.53;1.80;;;;;;;;;;4376011;32;20135;-70
2021/11/29 12:19:05;;;;;;;8.02;1.85;;;;;;;;;;4378058;32;20035;-70
2021/11/29 12:21:35;;;;;;;7.55;1.48;;;;;;;;;;4377716;32;20421;-70
2021/11/29 12:24:09;;;;;;;7.72;1.40;;;;;;;;;;4377981;32;20034;-70
2021/11/29 12:26:46;;;;;;;4.90;1.83;;;;;;;;;;4377279;32;20031;-70
2021/11/29 12:29:21;;;;;;;6.12;1.55;;;;;;;;;;4378050;32;20401;-69
2021/11/29 12:31:47;;;;;;;3.58;1.40;;;;;;;;;;4377780;32;20061;-70
2021/11/29 12:34:12;;;;;;;;;;;;;;;;;;4377601;32;20024;-69
2021/11/29 12:36:56;;;;;;;6.12;1.95;;;;;;;;;;4378138;32;19942;-70
2021/11/29 12:39:40;;;;;;;3.22;1.12;;;;;;;;;;4376785;32;20138;-70
2021/11/29 12:42:05;;;;;;;3.10;1.12;;;;;;;;;;4376991;32;20065;-70
2021/11/29 12:44:30;;;;;;;;;;;;;;;;;;4377267;32;20030;-70
2021/11/29 12:47:16;;;;;;;4.45;1.17;;;;;;;;;;4376767;32;19938;-69
2021/11/29 12:49:42;;;;;;;6.75;1.35;;;;;;;;;;4377153;32;20185;-70
2021/11/29 12:52:07;;;;;;;;;;;;;;;;;;4378144;32;20360;-69
2021/11/29 12:54:45;;;;;;;3.72;1.08;;;;;;;;;;4367836;32;19938;-69
2021/11/29 12:57:23;;;;;;;6.43;1.00;;;;;;;;;;4361960;32;20538;-69
2021/11/29 12:59:49;;;;;;;7.00;1.40;;;;;;;;;;4362016;32;20361;-69
2021/11/29 13:02:33;;;;;;;3.58;1.40;;;;;;;;;;4361985;32;20035;-70
2021/11/29 13:04:58;;;;;;;7.15;1.55;;;;;;;;;;4362220;32;20035;-70
2021/11/29 13:07:23;;;;;;;;;;;;;;;;;;4361910;32;20027;-70
2021/11/29 13:09:48;;;;;;;5.57;1.40;;;;;;;;;;4348939;33;19969;-69
2021/11/29 13:12:14;;;;;;;;;;;;;;;;;;4362566;32;20028;-68
2021/11/29 13:14:39;;;;;;;5.80;1.62;;;;;;;;;;4362828;32;20331;-70
2021/11/29 13:17:04;;;;;;;;;;;;;;;;;;4362840;32;20124;-70
2021/11/29 13:19:40;;;;;;;7.60;1.65;;;;;;;;;;4361658;32;19957;-70
2021/11/29 13:22:07;;;;;;;7.68;1.40;;;;;;;;;;4362167;32;20053;-69
2021/11/29 13:24:37;;;;;;;6.97;1.35;;;;;;;;;;4348237;33;20439;-69
2021/11/29 13:27:13;;;;;;;6.65;1.75;;;;;;;;;;4348281;32;20027;-69
2021/11/29 13:29:39;;;;;;;7.03;1.58;;;;;;;;;;4361246;32;20078;-70
2021/11/29 13:32:04;;;;;;;;;;;;;;;;;;4362630;32;20031;-70
2021/11/29 13:34:34;;;;;;;7.00;2.46;;;;;;;;;;4361344;32;20375;-69
2021/11/29 13:37:01;;;;;;;4.78;1.80;;;;;;;;;;4361950;32;20434;-69
2021/11/29 13:39:28;;;;;;;7.15;1.73;;;;;;;;;;4361069;32;20069;-69
2021/11/29 13:42:15;;;;;;;7.75;1.70;;;;;;;;;;4361509;32;20149;-70
2021/11/29 13:44:45;;;;;;;6.82;1.20;;;;;;;;;;4361075;32;20038;-69
2021/11/29 13:47:14;;;;;;;8.00;1.87;;;;;;;;;;4362193;32;20035;-70
2021/11/29 13:49:45;;;;;;;5.12;1.87;;;;;;;;;;4361800;32;20031;-69
2021/11/29 13:52:12;;;;;;;3.62;1.30;;;;;;;;;;4361760;32;20027;-70
2021/11/29 13:54:38;;;;;;;7.68;1.37;;;;;;;;;;4361284;32;20061;-69
2021/11/29 13:57:03;;;;;;;1.85;0.75;;;;;;;;;;4361630;32;20103;-69
2021/11/29 13:59:29;;;;;;;;;;;;;;;;;;4361426;32;20067;-70
2021/11/29 14:02:04;;;;;;;3.08;0.70;;;;;;;;;;4347583;33;19943;-70
2021/11/29 14:04:30;;;;;;;2.75;1.30;;;;;;;;;;4361165;32;20081;-69
2021/11/29 14:06:55;;;;;;;;;;;;;;;;;;4361036;32;20036;-69
2021/11/29 14:09:20;;;;;;;5.08;2.32;;;;;;;;;;4362236;32;20310;-69
2021/11/29 14:11:45;;;;;;;;;;;;;;;;;;4361554;32;20402;-70
2021/11/29 14:14:15;;;;;;;4.68;1.42;;;;;;;;;;4361319;32;19961;-70
2021/11/29 14:16:49;;;;;;;10.27;1.83;;;;;;;;;;4347888;33;20373;-69
2021/11/29 14:19:15;;;;;;;5.05;1.42;;;;;;;;;;4360911;32;20099;-70
2021/11/29 14:21:40;;;;;;;;;;;;;;;;;;4361314;32;20363;-70
2021/11/29 14:24:07;;;;;;;5.93;1.90;;;;;;;;;;4361766;32;19945;-69
2021/11/29 14:26:44;;;;;;;6.78;1.90;;;;;;;;;;4361284;32;20065;-71
2021/11/29 14:29:27;;;;;;;8.55;2.12;;;;;;;;;;4360635;32;20385;-70
2021/11/29 14:32:11;;;;;;;5.80;2.20;;;;;;;;;;4359686;33;20027;-70
2021/11/29 14:34:37;;;;;;;10.05;1.98;;;;;;;;;;4359536;32;20027;-70
2021/11/29 14:37:07;;;;;;;14.73;2.20;;;;;;;;;;4361454;32;20103;-70
2021/11/29 14:39:37;;;;;;;6.78;1.92;;;;;;;;;;4374911;32;20100;-70
2021/11/29 14:42:03;;;;;;;15.82;3.22;;;;;;;;;;4375874;32;20421;-70
2021/11/29 14:44:28;;;;;;;;;;;;;;;;;;4363094;32;20109;-69
2021/11/29 14:46:56;;;;;;;13.95;3.50;;;;;;;;;;4375567;32;19941;-70
2021/11/29 14:49:26;;;;;;;4.10;1.48;;;;;;;;;;4375346;32;20413;-69
2021/11/29 14:51:57;;;;;;;10.57;1.75;;;;;;;;;;4375362;32;20031;-70
2021/11/29 14:54:24;;;;;;;5.62;1.98;;;;;;;;;;4375816;32;20463;-69
2021/11/29 14:56:49;;;;;;;5.22;1.50;;;;;;;;;;4375393;32;20093;-70
2021/11/29 14:59:14;;;;;;;;;;;;;;;;;;4375858;32;20027;-70
2021/11/29 15:01:39;;;;;;;7.20;1.30;;;;;;;;;;4375336;32;19942;-70
2021/11/29 15:04:05;;;;;;;;;;;;;;;;;;4375511;32;20060;-69
2021/11/29 15:06:31;;;;;;;5.40;1.23;;;;;;;;;;4375068;32;20342;-69
2021/11/29 15:09:03;;;;;;;3.47;1.42;;;;;;;;;;4361946;32;20306;-70
2021/11/29 15:11:39;;;;;;;3.03;0.95;;;;;;;;;;4375556;32;20091;-69
2021/11/29 15:14:10;;;;;;;4.60;1.58;;;;;;;;;;4375228;32;20061;-71
2021/11/29 15:16:39;;;;;;;3.80;1.80;;;;;;;;;;4375802;32;20031;-70
2021/11/29 15:19:15;;;;;;;5.85;1.30;;;;;;;;;;4375162;32;20381;-70
2021/11/29 15:21:43;;;;;;;7.62;1.90;;;;;;;;;;4375498;32;20031;-70
2021/11/29 15:24:30;;;;;;;5.80;1.45;;;;;;;;;;4374468;32;20091;-69
2021/11/29 15:27:10;;;;;;;2.15;1.10;;;;;;;;;;4375116;32;20429;-70
2021/11/29 15:29:38;;;;;;;3.25;1.00;;;;;;;;;;4375396;32;20054;-70
2021/11/29 15:32:11;;;;;;;3.47;1.10;;;;;;;;;;4374439;32;20431;-70
2021/11/29 15:34:36;;;;;;;2.47;1.55;;;;;;;;;;4375465;32;20085;-70
2021/11/29 15:37:01;;;;;;;;;;;;;;;;;;4374978;32;20106;-70
2021/11/29 15:39:27;;;;;;;2.55;1.23;;;;;;;;;;4365980;32;19993;-70